createdAt,value
2022-08-31T00:01:26.232Z,94.06
2022-08-31T00:04:01.938Z,94.05
2022-08-31T00:06:33.494Z,94.55
2022-08-31T00:09:05.339Z,94.81
2022-08-31T00:11:37.927Z,95.32
2022-08-31T00:14:13.093Z,95.86
2022-08-31T00:16:45.078Z,95.35
2022-08-31T00:19:16.751Z,95.66
2022-08-31T00:21:48.284Z,96.34
2022-08-31T00:24:20.315Z,97.01
2022-08-31T00:26:51.826Z,96.76
2022-08-31T00:29:23.711Z,97.10
2022-08-31T00:31:55.304Z,97.75
2022-08-31T00:34:27.953Z,97.31
2022-08-31T00:37:00.931Z,98.17
2022-08-31T00:39:32.762Z,98.15
2022-08-31T00:42:04.262Z,98.81
2022-08-31T00:44:36.063Z,98.61
2022-08-31T00:47:07.575Z,99.10
2022-08-31T00:49:39.387Z,99.38
2022-08-31T00:52:10.919Z,99.64
2022-08-31T00:54:42.787Z,99.74
2022-08-31T00:57:14.295Z,99.44
2022-08-31T00:59:46.121Z,100.00
2022-08-31T01:02:17.668Z,100.00
2022-08-31T01:04:49.619Z,100.00
2022-08-31T01:07:22.025Z,100.00
2022-08-31T01:09:55.759Z,100.00
2022-08-31T01:12:27.505Z,100.00
2022-08-31T01:14:59.379Z,100.00
2022-08-31T01:17:30.888Z,100.00
2022-08-31T01:20:02.720Z,100.00
2022-08-31T01:22:34.217Z,100.00
2022-08-31T01:25:06.241Z,100.00
2022-08-31T01:27:37.810Z,100.00
2022-08-31T01:30:10.602Z,100.00
2022-08-31T01:32:42.118Z,100.00
2022-08-31T01:35:13.983Z,100.00
2022-08-31T01:37:45.483Z,100.00
2022-08-31T01:40:18.382Z,100.00
2022-08-31T01:42:49.926Z,100.00
2022-08-31T01:45:21.448Z,100.00
2022-08-31T01:47:53.412Z,100.00
2022-08-31T01:50:24.961Z,100.00
2022-08-31T01:52:56.773Z,100.00
2022-08-31T01:55:28.287Z,100.00
2022-08-31T01:58:00.178Z,100.00
2022-08-31T02:00:31.931Z,100.00
2022-08-31T02:03:03.824Z,100.00
2022-08-31T02:05:35.509Z,100.00
2022-08-31T02:08:07.343Z,100.00
2022-08-31T02:10:38.952Z,100.00
2022-08-31T02:13:10.848Z,100.00
2022-08-31T02:15:42.378Z,100.00
2022-08-31T02:18:14.231Z,100.00
2022-08-31T02:20:46.752Z,100.00
2022-08-31T02:23:18.865Z,100.00
2022-08-31T02:25:50.525Z,100.00
2022-08-31T02:28:22.328Z,100.00
2022-08-31T02:30:53.822Z,100.00
2022-08-31T02:33:25.853Z,100.00
2022-08-31T02:35:57.337Z,100.00
2022-08-31T02:38:29.146Z,100.00
2022-08-31T02:41:00.648Z,100.00
2022-08-31T02:43:32.432Z,100.00
2022-08-31T02:46:03.997Z,100.00
2022-08-31T02:48:35.925Z,100.00
2022-08-31T02:51:07.506Z,100.00
2022-08-31T02:53:39.475Z,100.00
2022-08-31T02:56:14.231Z,100.00
2022-08-31T02:58:46.297Z,100.00
2022-08-31T03:01:17.881Z,100.00
2022-08-31T03:03:50.094Z,100.00
2022-08-31T03:06:22.696Z,100.00
2022-08-31T03:08:54.488Z,100.00
2022-08-31T03:11:25.993Z,100.00
2022-08-31T03:13:58.806Z,100.00
2022-08-31T03:16:31.030Z,100.00
2022-08-31T03:19:02.518Z,100.00
2022-08-31T03:21:34.474Z,100.00
2022-08-31T03:24:06.021Z,100.00
2022-08-31T03:26:37.553Z,100.00
2022-08-31T03:29:09.066Z,100.00
2022-08-31T03:31:40.863Z,100.00
2022-08-31T03:34:12.400Z,100.00
2022-08-31T03:36:48.183Z,100.00
2022-08-31T03:39:20.208Z,100.00
2022-08-31T03:41:51.721Z,100.00
2022-08-31T03:44:24.390Z,100.00
2022-08-31T03:46:56.571Z,100.00
2022-08-31T03:49:29.840Z,100.00
2022-08-31T03:52:02.236Z,100.00
2022-08-31T03:54:34.227Z,100.00
2022-08-31T03:57:05.765Z,100.00
2022-08-31T03:59:37.891Z,100.00
2022-08-31T04:02:09.474Z,100.00
2022-08-31T04:04:41.480Z,100.00
2022-08-31T04:07:13.368Z,100.00
2022-08-31T04:09:44.929Z,100.00
2022-08-31T04:12:16.812Z,100.00
2022-08-31T04:14:48.312Z,100.00
2022-08-31T04:17:19.834Z,100.00
2022-08-31T04:19:51.338Z,100.00
2022-08-31T04:22:23.170Z,100.00
2022-08-31T04:24:54.664Z,100.00
2022-08-31T04:27:26.517Z,100.00
2022-08-31T04:29:58.026Z,100.00
2022-08-31T04:32:30.053Z,100.00
2022-08-31T04:35:01.966Z,100.00
2022-08-31T04:37:34.615Z,100.00
2022-08-31T04:40:07.423Z,100.00
2022-08-31T04:42:39.493Z,100.00
2022-08-31T04:45:11.016Z,100.00
2022-08-31T04:47:42.851Z,100.00
2022-08-31T04:50:14.416Z,100.00
2022-08-31T04:53:03.615Z,100.00
2022-08-31T04:55:35.871Z,100.00
2022-08-31T04:58:07.392Z,100.00
2022-08-31T05:00:39.320Z,100.00
2022-08-31T05:03:10.883Z,100.00
2022-08-31T05:05:42.848Z,100.00
2022-08-31T05:08:14.353Z,100.00
2022-08-31T05:10:46.463Z,100.00
2022-08-31T05:13:18.168Z,100.00
2022-08-31T05:15:50.714Z,100.00
2022-08-31T05:18:26.548Z,100.00
2022-08-31T05:20:58.569Z,100.00
2022-08-31T05:23:30.116Z,100.00
2022-08-31T05:26:01.965Z,100.00
2022-08-31T05:28:34.025Z,100.00
2022-08-31T05:31:05.923Z,100.00
2022-08-31T05:33:37.448Z,100.00
2022-08-31T05:36:09.340Z,100.00
2022-08-31T05:38:42.396Z,100.00
2022-08-31T05:41:14.336Z,98.96
2022-08-31T05:43:45.842Z,98.07
2022-08-31T05:46:17.721Z,97.86
2022-08-31T05:48:50.177Z,96.72
2022-08-31T05:51:22.240Z,96.43
2022-08-31T05:53:53.736Z,94.19
2022-08-31T05:56:25.447Z,94.35
2022-08-31T05:58:58.097Z,93.61
2022-08-31T06:01:33.105Z,92.93
2022-08-31T06:04:04.718Z,91.93
2022-08-31T06:06:37.090Z,91.71
2022-08-31T06:09:08.641Z,91.29
2022-08-31T06:11:42.469Z,90.98
2022-08-31T06:14:14.015Z,89.54
2022-08-31T06:16:45.870Z,89.65
2022-08-31T06:19:17.448Z,88.76
2022-08-31T06:21:51.756Z,87.35
2022-08-31T06:24:23.290Z,86.80
2022-08-31T06:26:58.955Z,85.53
2022-08-31T06:29:33.614Z,85.17
2022-08-31T06:32:10.496Z,84.20
2022-08-31T06:34:42.605Z,82.45
2022-08-31T06:37:18.897Z,82.71
2022-08-31T06:39:50.829Z,81.79
2022-08-31T06:42:22.792Z,82.63
2022-08-31T06:44:57.910Z,80.77
2022-08-31T06:47:29.891Z,80.41
2022-08-31T06:50:01.420Z,79.79
2022-08-31T06:52:38.260Z,78.25
2022-08-31T06:55:10.584Z,77.82
2022-08-31T06:57:42.449Z,76.57
2022-08-31T07:00:14.010Z,74.68
2022-08-31T07:02:45.956Z,75.81
2022-08-31T07:05:25.071Z,74.07
2022-08-31T07:07:56.599Z,73.57
2022-08-31T07:10:28.659Z,72.42
2022-08-31T07:13:00.177Z,72.27
2022-08-31T07:15:32.201Z,71.41
2022-08-31T07:18:08.301Z,72.74
2022-08-31T07:20:42.087Z,70.92
2022-08-31T07:23:13.605Z,70.98
2022-08-31T07:25:45.785Z,68.81
2022-08-31T07:28:17.332Z,67.61
2022-08-31T07:30:50.233Z,67.49
2022-08-31T07:33:21.919Z,66.71
2022-08-31T07:35:53.754Z,65.23
2022-08-31T07:38:44.207Z,66.84
2022-08-31T07:41:34.823Z,65.01
2022-08-31T07:44:06.449Z,65.55
2022-08-31T07:46:38.126Z,62.01
2022-08-31T07:49:13.889Z,62.17
2022-08-31T07:51:51.997Z,61.34
2022-08-31T07:54:25.172Z,61.63
2022-08-31T07:57:04.330Z,61.50
2022-08-31T07:59:37.185Z,60.90
2022-08-31T08:02:11.084Z,60.60
2022-08-31T08:04:45.260Z,60.33
2022-08-31T08:07:17.730Z,59.22
2022-08-31T08:09:49.258Z,59.71
2022-08-31T08:12:22.602Z,57.34
2022-08-31T08:14:54.746Z,59.29
2022-08-31T08:17:26.855Z,56.93
2022-08-31T08:19:58.394Z,57.09
2022-08-31T08:22:50.709Z,56.56
2022-08-31T08:25:25.867Z,56.85
2022-08-31T08:27:57.763Z,55.31
2022-08-31T08:30:29.709Z,55.74
2022-08-31T08:33:03.580Z,53.67
2022-08-31T08:35:35.389Z,53.09
2022-08-31T08:38:07.944Z,54.23
2022-08-31T08:40:42.923Z,51.46
2022-08-31T08:43:15.888Z,51.97
2022-08-31T08:45:47.801Z,52.84
2022-08-31T08:48:20.936Z,52.42
2022-08-31T08:50:53.606Z,51.84
2022-08-31T08:53:25.119Z,51.50
2022-08-31T08:56:08.003Z,51.78
2022-08-31T08:58:48.542Z,51.18
2022-08-31T09:01:20.575Z,48.93
2022-08-31T09:03:52.133Z,51.26
2022-08-31T09:06:24.137Z,50.66
2022-08-31T09:08:56.141Z,50.23
2022-08-31T09:11:28.251Z,47.53
2022-08-31T09:13:59.760Z,48.49
2022-08-31T09:16:35.303Z,46.49
2022-08-31T09:19:06.893Z,46.01
2022-08-31T09:21:38.938Z,47.82
2022-08-31T09:24:10.502Z,45.55
2022-08-31T09:26:42.378Z,48.39
2022-08-31T09:29:15.967Z,47.30
2022-08-31T09:31:47.519Z,46.71
2022-08-31T09:34:19.471Z,46.59
2022-08-31T09:36:51.813Z,47.41
2022-08-31T09:39:24.899Z,44.38
2022-08-31T09:42:01.202Z,44.46
2022-08-31T09:44:32.911Z,42.59
2022-08-31T09:47:04.817Z,43.69
2022-08-31T09:49:36.951Z,42.88
2022-08-31T09:52:08.852Z,43.06
2022-08-31T09:54:59.181Z,42.68
2022-08-31T09:57:32.793Z,42.52
2022-08-31T10:00:04.394Z,41.19
2022-08-31T10:02:38.349Z,41.37
2022-08-31T10:05:09.915Z,39.90
2022-08-31T10:07:43.571Z,39.82
2022-08-31T10:10:20.419Z,40.24
2022-08-31T10:13:04.067Z,39.53
2022-08-31T10:15:36.168Z,40.94
2022-08-31T10:18:11.880Z,40.73
2022-08-31T10:20:46.966Z,41.24
2022-08-31T10:23:19.068Z,41.58
2022-08-31T10:25:54.954Z,40.16
2022-08-31T10:28:28.571Z,39.99
2022-08-31T10:31:00.473Z,40.19
2022-08-31T10:33:55.091Z,38.72
2022-08-31T10:36:33.405Z,40.29
2022-08-31T10:39:04.935Z,41.10
2022-08-31T10:41:36.828Z,40.08
2022-08-31T10:44:08.365Z,39.79
2022-08-31T10:46:40.268Z,39.59
2022-08-31T10:49:11.858Z,38.71
2022-08-31T10:51:43.960Z,40.34
2022-08-31T10:54:24.579Z,40.23
2022-08-31T10:56:59.430Z,39.76
2022-08-31T10:59:32.384Z,41.43
2022-08-31T11:02:04.287Z,41.59
2022-08-31T11:04:35.907Z,41.60
2022-08-31T11:07:07.888Z,42.50
2022-08-31T11:09:39.890Z,43.51
2022-08-31T11:12:11.551Z,45.00
2022-08-31T11:14:45.510Z,42.98
2022-08-31T11:17:18.873Z,40.08
2022-08-31T11:19:51.210Z,39.84
2022-08-31T11:22:30.871Z,39.15
2022-08-31T11:25:04.233Z,37.81
2022-08-31T11:27:36.200Z,38.95
2022-08-31T11:30:08.461Z,37.21
2022-08-31T11:32:39.995Z,37.13
2022-08-31T11:35:11.911Z,36.83
2022-08-31T11:37:44.401Z,39.57
2022-08-31T11:40:16.486Z,40.05
2022-08-31T11:42:48.021Z,39.99
2022-08-31T11:45:20.040Z,38.92
2022-08-31T11:47:57.020Z,37.16
2022-08-31T11:50:29.793Z,37.18
2022-08-31T11:53:01.975Z,37.58
2022-08-31T11:55:39.219Z,39.02
2022-08-31T11:58:11.193Z,41.30
2022-08-31T12:00:43.213Z,41.69
2022-08-31T12:03:16.235Z,41.75
2022-08-31T12:05:52.284Z,42.42
2022-08-31T12:08:23.906Z,42.36
2022-08-31T12:10:55.799Z,42.23
2022-08-31T12:13:27.332Z,43.07
2022-08-31T12:16:00.892Z,43.00
2022-08-31T12:18:32.508Z,42.86
2022-08-31T12:21:25.663Z,42.56
2022-08-31T12:23:57.220Z,41.63
2022-08-31T12:26:28.854Z,42.04
2022-08-31T12:29:00.460Z,42.24
2022-08-31T12:31:32.525Z,41.57
2022-08-31T12:34:04.052Z,40.22
2022-08-31T12:36:35.600Z,39.96
2022-08-31T12:39:08.109Z,39.93
2022-08-31T12:41:40.123Z,41.08
2022-08-31T12:44:14.309Z,42.06
2022-08-31T12:46:46.348Z,42.01
2022-08-31T12:49:17.980Z,42.44
2022-08-31T12:51:49.894Z,42.67
2022-08-31T12:54:21.817Z,43.41
2022-08-31T12:56:53.353Z,42.57
2022-08-31T12:59:40.756Z,42.96
2022-08-31T13:02:20.394Z,43.01
2022-08-31T13:04:52.750Z,41.65
2022-08-31T13:07:24.349Z,40.45
2022-08-31T13:09:56.289Z,39.26
2022-08-31T13:12:27.814Z,38.66
2022-08-31T13:14:59.777Z,38.34
2022-08-31T13:17:31.619Z,36.59
2022-08-31T13:20:03.615Z,36.16
2022-08-31T13:22:40.075Z,35.89
2022-08-31T13:25:11.703Z,35.75
2022-08-31T13:27:45.583Z,34.39
2022-08-31T13:30:20.497Z,35.08
2022-08-31T13:32:54.641Z,35.03
2022-08-31T13:35:26.252Z,35.83
2022-08-31T13:38:04.761Z,36.10
2022-08-31T13:40:37.712Z,38.20
2022-08-31T13:43:09.333Z,39.08
2022-08-31T13:45:43.370Z,39.58
2022-08-31T13:48:14.945Z,39.52
2022-08-31T13:50:55.433Z,40.28
2022-08-31T13:53:27.357Z,39.23
2022-08-31T13:55:59.222Z,37.35
2022-08-31T13:58:30.757Z,37.89
2022-08-31T14:01:03.574Z,37.13
2022-08-31T14:03:40.984Z,35.15
2022-08-31T14:06:16.866Z,35.70
2022-08-31T14:08:48.979Z,35.88
2022-08-31T14:11:20.654Z,35.99
2022-08-31T14:13:52.838Z,36.08
2022-08-31T14:16:25.427Z,34.71
2022-08-31T14:18:57.607Z,35.07
2022-08-31T14:21:29.332Z,35.27
2022-08-31T14:24:02.811Z,34.12
2022-08-31T14:26:34.555Z,34.61
2022-08-31T14:29:10.934Z,34.76
2022-08-31T14:31:42.878Z,34.50
2022-08-31T14:34:17.339Z,34.86
2022-08-31T14:36:55.056Z,34.25
2022-08-31T14:39:27.605Z,34.64
2022-08-31T14:41:59.153Z,35.39
2022-08-31T14:44:31.062Z,34.77
2022-08-31T14:47:02.693Z,36.21
2022-08-31T14:49:36.548Z,37.16
2022-08-31T14:52:08.482Z,38.15
2022-08-31T14:54:41.392Z,38.79
2022-08-31T14:57:12.986Z,38.74
2022-08-31T14:59:47.238Z,38.47
2022-08-31T15:02:21.271Z,38.56
2022-08-31T15:04:53.347Z,37.86
2022-08-31T15:07:24.935Z,37.23
2022-08-31T15:09:56.864Z,37.16
2022-08-31T15:12:28.778Z,36.76
2022-08-31T15:15:00.646Z,36.02
2022-08-31T15:17:36.105Z,37.83
2022-08-31T15:20:08.526Z,38.98
2022-08-31T15:22:40.900Z,38.73
2022-08-31T15:25:13.164Z,39.50
2022-08-31T15:27:45.534Z,38.05
2022-08-31T15:30:19.838Z,39.52
2022-08-31T15:32:55.035Z,37.05
2022-08-31T15:35:30.709Z,36.41
2022-08-31T15:38:06.386Z,37.17
2022-08-31T15:40:39.239Z,36.11
2022-08-31T15:43:15.340Z,37.70
2022-08-31T15:45:47.232Z,38.54
2022-08-31T15:48:37.842Z,37.96
2022-08-31T15:51:10.867Z,39.36
2022-08-31T15:53:52.690Z,38.57
2022-08-31T15:56:33.271Z,40.23
2022-08-31T15:59:06.030Z,40.24
2022-08-31T16:01:37.720Z,40.78
2022-08-31T16:04:16.609Z,41.58
2022-08-31T16:06:48.898Z,41.06
2022-08-31T16:09:21.549Z,42.02
2022-08-31T16:11:53.130Z,41.93
2022-08-31T16:14:25.138Z,42.29
2022-08-31T16:16:59.599Z,42.34
2022-08-31T16:19:35.935Z,42.23
2022-08-31T16:22:08.343Z,42.08
2022-08-31T16:24:40.390Z,41.92
2022-08-31T16:27:12.053Z,42.27
2022-08-31T16:29:45.043Z,43.06
2022-08-31T16:32:16.603Z,43.00
2022-08-31T16:34:49.448Z,42.52
2022-08-31T16:37:21.608Z,43.19
2022-08-31T16:39:53.511Z,43.44
2022-08-31T16:42:25.121Z,43.03
2022-08-31T16:45:01.769Z,43.56
2022-08-31T16:47:33.805Z,43.97
2022-08-31T16:50:06.478Z,43.73
2022-08-31T16:52:38.071Z,43.81
2022-08-31T16:55:13.859Z,43.73
2022-08-31T16:57:45.561Z,44.12
2022-08-31T17:00:17.485Z,44.49
2022-08-31T17:02:49.079Z,44.41
2022-08-31T17:05:20.996Z,43.79
2022-08-31T17:07:52.570Z,44.30
2022-08-31T17:10:24.547Z,44.85
2022-08-31T17:12:56.963Z,44.87
2022-08-31T17:15:30.330Z,44.97
2022-08-31T17:18:01.929Z,46.59
2022-08-31T17:20:33.842Z,48.07
2022-08-31T17:23:06.561Z,49.22
2022-08-31T17:25:38.539Z,50.77
2022-08-31T17:28:10.123Z,51.53
2022-08-31T17:30:47.165Z,52.40
2022-08-31T17:33:26.265Z,52.92
2022-08-31T17:35:58.189Z,53.63
2022-08-31T17:38:29.834Z,53.96
2022-08-31T17:41:01.771Z,54.15
2022-08-31T17:43:37.429Z,54.66
2022-08-31T17:46:09.334Z,55.72
2022-08-31T17:48:40.904Z,55.58
2022-08-31T17:51:12.801Z,56.14
2022-08-31T17:53:44.361Z,56.40
2022-08-31T17:56:16.707Z,56.87
2022-08-31T17:58:49.112Z,57.28
2022-08-31T18:01:23.573Z,57.69
2022-08-31T18:03:55.230Z,58.01
2022-08-31T18:06:27.408Z,58.61
2022-08-31T18:08:59.112Z,58.75
2022-08-31T18:11:31.335Z,59.07
2022-08-31T18:14:02.898Z,59.84
2022-08-31T18:16:34.979Z,59.81
2022-08-31T18:19:06.586Z,60.00
2022-08-31T18:21:38.238Z,60.18
2022-08-31T18:24:09.929Z,60.53
2022-08-31T18:26:47.775Z,61.09
2022-08-31T18:29:23.873Z,60.85
2022-08-31T18:31:57.151Z,61.19
2022-08-31T18:34:29.243Z,61.40
2022-08-31T18:37:00.871Z,61.19
2022-08-31T18:39:59.879Z,61.59
2022-08-31T18:42:51.437Z,61.71
2022-08-31T18:45:23.318Z,61.81
2022-08-31T18:48:23.205Z,62.06
2022-08-31T18:50:48.096Z,62.18
2022-08-31T18:53:28.804Z,61.99
2022-08-31T18:56:01.255Z,61.25
2022-08-31T18:58:32.809Z,60.71
2022-08-31T19:01:07.844Z,60.72
2022-08-31T19:03:39.638Z,61.41
2022-08-31T19:06:11.611Z,61.14
2022-08-31T19:08:43.779Z,60.96
2022-08-31T19:11:15.677Z,61.29
2022-08-31T19:13:50.740Z,60.73
2022-08-31T19:16:23.143Z,61.20
2022-08-31T19:18:58.629Z,61.41
2022-08-31T19:21:30.684Z,61.17
2022-08-31T19:24:02.492Z,61.25
2022-08-31T19:26:37.335Z,61.54
2022-08-31T19:29:09.349Z,61.85
2022-08-31T19:31:41.065Z,61.72
2022-08-31T19:34:12.720Z,61.71
2022-08-31T19:36:44.677Z,62.39
2022-08-31T19:39:16.378Z,62.66
2022-08-31T19:41:50.217Z,62.24
2022-08-31T19:44:22.602Z,62.35
2022-08-31T19:46:54.200Z,62.45
2022-08-31T19:49:26.355Z,63.34
2022-08-31T19:51:58.253Z,63.40
2022-08-31T19:54:31.356Z,63.74
2022-08-31T19:57:03.389Z,63.92
2022-08-31T19:59:35.441Z,64.31
2022-08-31T20:02:08.833Z,64.95
2022-08-31T20:04:41.643Z,65.21
2022-08-31T20:07:14.403Z,65.29
2022-08-31T20:09:46.373Z,65.38
2022-08-31T20:12:18.829Z,65.91
2022-08-31T20:14:50.775Z,65.73
2022-08-31T20:17:22.365Z,66.45
2022-08-31T20:19:55.161Z,66.79
2022-08-31T20:22:29.686Z,67.28
2022-08-31T20:25:03.884Z,67.44
2022-08-31T20:27:36.285Z,67.77
2022-08-31T20:30:09.146Z,67.43
2022-08-31T20:32:40.818Z,68.21
2022-08-31T20:35:13.962Z,68.70
2022-08-31T20:37:45.534Z,68.96
2022-08-31T20:40:17.983Z,69.13
2022-08-31T20:42:51.482Z,69.34
2022-08-31T20:45:23.477Z,70.03
2022-08-31T20:48:13.861Z,70.22
2022-08-31T20:50:49.022Z,70.57
2022-08-31T20:53:38.980Z,70.74
2022-08-31T20:56:16.393Z,71.02
2022-08-31T20:58:49.511Z,71.68
2022-08-31T21:01:21.716Z,71.86
2022-08-31T21:03:53.915Z,72.39
2022-08-31T21:06:26.021Z,72.32
2022-08-31T21:08:57.860Z,72.49
2022-08-31T21:11:29.442Z,73.30
2022-08-31T21:14:01.355Z,73.03
2022-08-31T21:16:34.706Z,73.47
2022-08-31T21:19:07.323Z,73.21
2022-08-31T21:21:38.846Z,73.04
2022-08-31T21:24:11.814Z,73.31
2022-08-31T21:26:43.357Z,72.93
2022-08-31T21:29:15.262Z,73.01
2022-08-31T21:31:52.023Z,73.15
2022-08-31T21:34:30.361Z,73.00
2022-08-31T21:37:01.863Z,73.01
2022-08-31T21:39:34.271Z,72.61
2022-08-31T21:42:05.795Z,72.86
2022-08-31T21:44:37.825Z,73.13
2022-08-31T21:47:14.824Z,72.92
2022-08-31T21:49:49.979Z,72.90
2022-08-31T21:52:21.530Z,72.38
2022-08-31T21:54:53.529Z,72.57
2022-08-31T21:57:25.615Z,72.74
2022-08-31T21:59:57.587Z,73.12
2022-08-31T22:02:29.559Z,73.45
2022-08-31T22:05:04.072Z,73.20
2022-08-31T22:07:40.204Z,73.69
2022-08-31T22:10:12.579Z,73.60
2022-08-31T22:12:44.100Z,73.52
2022-08-31T22:15:17.920Z,73.60
2022-08-31T22:18:11.439Z,74.12
2022-08-31T22:20:42.416Z,74.12
2022-08-31T22:23:14.087Z,74.10
2022-08-31T22:25:45.644Z,74.85
2022-08-31T22:28:17.189Z,74.26
2022-08-31T22:30:49.535Z,74.39
2022-08-31T22:33:21.178Z,74.23
2022-08-31T22:35:53.182Z,74.35
2022-08-31T22:38:24.763Z,73.62
2022-08-31T22:40:56.579Z,73.83
2022-08-31T22:43:28.101Z,73.58
2022-08-31T22:46:00.449Z,74.02
2022-08-31T22:48:32.009Z,73.90
2022-08-31T22:51:04.074Z,73.65
2022-08-31T22:53:36.105Z,73.91
2022-08-31T22:56:08.129Z,73.83
2022-08-31T22:58:40.796Z,73.78
2022-08-31T23:01:12.709Z,73.44
2022-08-31T23:03:44.260Z,73.63
2022-08-31T23:06:16.584Z,73.96
2022-08-31T23:08:48.874Z,74.09
2022-08-31T23:11:20.708Z,73.85
2022-08-31T23:13:52.428Z,74.55
2022-08-31T23:16:25.155Z,74.16
2022-08-31T23:19:00.336Z,74.38
2022-08-31T23:21:31.856Z,74.62
2022-08-31T23:24:03.655Z,74.39
2022-08-31T23:26:35.148Z,74.81
2022-08-31T23:29:10.332Z,75.03
2022-08-31T23:31:41.856Z,74.89
2022-08-31T23:34:13.688Z,75.28
2022-08-31T23:36:47.637Z,75.64
2022-08-31T23:39:19.473Z,75.34
2022-08-31T23:41:51.000Z,75.64
2022-08-31T23:44:24.909Z,75.58
2022-08-31T23:46:57.160Z,75.70
2022-08-31T23:49:28.961Z,75.27
2022-08-31T23:52:00.753Z,75.71
2022-08-31T23:54:32.555Z,75.14
2022-08-31T23:57:04.845Z,75.27
2022-08-31T23:59:36.739Z,75.04
